createdAt,value
2023-04-20T00:02:16.914Z,7.80
2023-04-20T00:07:41.624Z,8.27
2023-04-20T00:13:06.862Z,8.00
2023-04-20T00:18:30.580Z,7.53
2023-04-20T00:23:54.515Z,7.78
2023-04-20T00:29:19.782Z,6.45
2023-04-20T00:34:43.700Z,6.40
2023-04-20T00:40:09.180Z,6.78
2023-04-20T00:45:34.924Z,6.95
2023-04-20T00:51:00.277Z,7.07
2023-04-20T00:56:25.064Z,7.93
2023-04-20T01:01:50.415Z,7.63
2023-04-20T01:07:14.619Z,9.07
2023-04-20T01:12:38.415Z,10.10
2023-04-20T01:18:03.966Z,12.20
2023-04-20T01:23:29.192Z,12.63
2023-04-20T01:28:53.092Z,12.27
2023-04-20T01:34:17.755Z,13.80
2023-04-20T01:39:43.805Z,12.52
2023-04-20T01:45:08.651Z,13.63
2023-04-20T01:50:32.438Z,12.27
2023-04-20T01:55:57.681Z,12.88
2023-04-20T02:01:21.596Z,13.23
2023-04-20T02:06:45.471Z,12.60
2023-04-20T02:12:10.585Z,12.20
2023-04-20T02:17:37.432Z,11.90
2023-04-20T02:23:01.212Z,10.70
2023-04-20T02:28:26.514Z,9.68
2023-04-20T02:33:51.533Z,11.25
2023-04-20T02:39:16.694Z,12.82
2023-04-20T02:44:41.966Z,12.73
2023-04-20T02:50:07.457Z,10.90
2023-04-20T02:55:42.846Z,11.48
2023-04-20T03:01:20.459Z,11.85
2023-04-20T03:06:46.480Z,12.55
2023-04-20T03:12:17.547Z,11.10
2023-04-20T03:17:45.565Z,10.55
2023-04-20T03:23:10.273Z,9.32
2023-04-20T03:28:34.323Z,8.77
2023-04-20T03:34:00.007Z,8.10
2023-04-20T03:39:23.856Z,7.30
2023-04-20T03:44:47.605Z,8.05
2023-04-20T03:50:12.872Z,8.50
2023-04-20T03:55:38.058Z,8.20
2023-04-20T04:01:07.828Z,9.02
2023-04-20T04:06:35.433Z,10.00
2023-04-20T04:11:59.610Z,10.88
2023-04-20T04:17:26.167Z,13.57
2023-04-20T04:22:53.838Z,12.15
2023-04-20T04:28:40.454Z,11.77
2023-04-20T04:34:14.971Z,11.00
2023-04-20T04:39:47.452Z,11.35
2023-04-20T04:45:20.114Z,10.23
2023-04-20T04:50:43.973Z,8.90
2023-04-20T04:56:10.806Z,8.93
2023-04-20T05:01:34.619Z,9.30
2023-04-20T05:06:58.413Z,10.88
2023-04-20T05:12:25.678Z,9.38
2023-04-20T05:17:50.640Z,9.80
2023-04-20T05:23:14.455Z,11.80
2023-04-20T05:28:39.997Z,9.57
2023-04-20T05:34:03.919Z,10.95
2023-04-20T05:39:27.720Z,9.93
2023-04-20T05:44:52.784Z,9.00
2023-04-20T05:50:16.508Z,8.15
2023-04-20T05:55:40.250Z,9.95
2023-04-20T06:01:05.486Z,10.40
2023-04-20T06:06:29.246Z,11.05
2023-04-20T06:11:53.063Z,11.18
2023-04-20T06:17:18.180Z,10.93
2023-04-20T06:22:44.589Z,9.80
2023-04-20T06:28:08.548Z,9.85
2023-04-20T06:33:33.782Z,9.77
2023-04-20T06:38:57.494Z,9.82
2023-04-20T06:44:21.304Z,9.52
2023-04-20T06:49:46.399Z,9.00
2023-04-20T06:55:10.845Z,6.28
2023-04-20T07:00:34.656Z,6.65
2023-04-20T07:05:59.738Z,7.40
2023-04-20T07:11:25.565Z,7.10
2023-04-20T07:16:49.420Z,6.05
2023-04-20T07:22:14.633Z,5.65
2023-04-20T07:27:39.985Z,4.88
2023-04-20T07:33:03.867Z,4.53
2023-04-20T07:38:29.032Z,11.43
2023-04-20T07:43:52.773Z,5.00
2023-04-20T07:49:16.828Z,4.22
2023-04-20T07:54:42.101Z,4.53
2023-04-20T08:00:07.406Z,4.40
2023-04-20T08:05:38.824Z,4.50
2023-04-20T08:11:03.978Z,4.57
2023-04-20T08:16:28.005Z,3.97
2023-04-20T08:21:52.897Z,5.43
2023-04-20T08:27:18.115Z,4.00
2023-04-20T08:32:42.364Z,4.97
2023-04-20T08:38:06.243Z,3.97
2023-04-20T08:43:32.346Z,4.00
2023-04-20T08:48:57.031Z,4.00
2023-04-20T08:54:21.698Z,4.55
2023-04-20T08:59:47.400Z,4.05
2023-04-20T09:05:11.285Z,4.15
2023-04-20T09:10:41.449Z,4.18
2023-04-20T09:16:14.064Z,4.10
2023-04-20T09:21:37.867Z,3.90
2023-04-20T09:27:02.503Z,3.75
2023-04-20T09:32:29.420Z,3.70
2023-04-20T09:37:54.360Z,3.50
2023-04-20T09:43:21.209Z,4.20
2023-04-20T09:48:46.716Z,8.77
2023-04-20T09:54:11.890Z,4.55
2023-04-20T09:59:36.046Z,5.07
2023-04-20T10:05:01.402Z,4.95
2023-04-20T10:10:25.308Z,5.57
2023-04-20T10:15:49.079Z,5.35
2023-04-20T10:21:14.271Z,4.38
2023-04-20T10:26:38.824Z,5.85
2023-04-20T10:32:02.832Z,4.72
2023-04-20T10:37:28.907Z,4.95
2023-04-20T10:42:52.597Z,5.22
2023-04-20T10:48:17.957Z,4.40
2023-04-20T10:53:43.586Z,5.03
2023-04-20T10:59:08.592Z,6.03
2023-04-20T11:04:33.380Z,5.32
2023-04-20T11:09:58.561Z,4.45
2023-04-20T11:15:32.368Z,2.88
2023-04-20T11:20:56.914Z,2.78
2023-04-20T11:26:22.044Z,2.80
2023-04-20T11:31:52.172Z,2.70
2023-04-20T11:42:40.958Z,2.65
2023-04-20T11:48:06.098Z,2.90
2023-04-20T11:53:29.953Z,2.83
2023-04-20T11:58:55.087Z,3.38
2023-04-20T12:04:19.016Z,2.92
2023-04-20T12:09:42.891Z,2.85
2023-04-20T12:15:09.618Z,2.90
2023-04-20T12:20:33.533Z,2.80
2023-04-20T12:25:57.357Z,3.00
2023-04-20T12:31:26.504Z,2.60
2023-04-20T12:36:50.487Z,2.53
2023-04-20T12:42:14.175Z,3.03
2023-04-20T12:47:39.239Z,3.30
2023-04-20T12:53:03.009Z,3.30
2023-04-20T12:58:27.056Z,3.20
2023-04-20T13:03:53.328Z,3.00
2023-04-20T13:09:17.103Z,3.05
2023-04-20T13:14:40.896Z,3.28
2023-04-20T13:20:07.880Z,3.80
2023-04-20T13:25:34.070Z,3.05
2023-04-20T13:30:58.547Z,2.30
2023-04-20T13:36:24.417Z,2.80
2023-04-20T13:41:49.300Z,2.55
2023-04-20T13:47:13.093Z,3.75
2023-04-20T13:52:38.287Z,2.65
2023-04-20T13:58:02.036Z,2.40
2023-04-20T14:03:26.854Z,2.20
2023-04-20T14:08:52.151Z,2.38
2023-04-20T14:14:16.394Z,3.10
2023-04-20T14:19:40.394Z,2.67
2023-04-20T14:25:06.287Z,2.30
2023-04-20T14:30:30.004Z,2.25
2023-04-20T14:35:53.933Z,1.98
2023-04-20T14:41:19.016Z,2.13
2023-04-20T14:46:43.007Z,1.92
2023-04-20T14:52:07.034Z,2.50
2023-04-20T14:57:32.501Z,2.72
2023-04-20T15:02:57.449Z,2.90
2023-04-20T15:08:21.390Z,2.67
2023-04-20T15:13:47.120Z,2.33
2023-04-20T15:19:11.163Z,3.03
2023-04-20T15:24:35.068Z,5.88
2023-04-20T15:30:00.198Z,3.22
2023-04-20T15:35:24.101Z,2.83
2023-04-20T15:40:47.830Z,3.25
2023-04-20T15:46:13.082Z,2.03
2023-04-20T15:51:37.008Z,2.45
2023-04-20T15:57:01.272Z,3.10
2023-04-20T16:02:26.563Z,2.40
2023-04-20T16:07:50.491Z,1.98
2023-04-20T16:13:14.196Z,1.75
2023-04-20T16:18:39.277Z,1.75
2023-04-20T16:24:03.094Z,1.67
2023-04-20T16:29:27.108Z,2.45
2023-04-20T16:34:52.316Z,2.33
2023-04-20T16:40:16.039Z,2.25
2023-04-20T16:45:39.805Z,2.10
2023-04-20T16:51:05.127Z,2.40
2023-04-20T16:56:29.100Z,2.40
2023-04-20T17:01:52.938Z,2.20
2023-04-20T17:07:18.216Z,1.90
2023-04-20T17:12:42.233Z,2.00
2023-04-20T17:18:06.910Z,2.53
2023-04-20T17:23:34.720Z,2.22
2023-04-20T17:28:58.697Z,2.20
2023-04-20T17:34:23.279Z,2.30
2023-04-20T17:39:48.477Z,2.20
2023-04-20T17:45:12.865Z,2.20
2023-04-20T17:50:36.835Z,1.80
2023-04-20T17:56:02.688Z,1.88
2023-04-20T18:01:28.002Z,1.85
2023-04-20T18:06:52.569Z,2.55
2023-04-20T18:12:17.842Z,2.03
2023-04-20T18:17:42.362Z,2.00
2023-04-20T18:23:06.113Z,2.40
2023-04-20T18:28:31.265Z,2.05
2023-04-20T18:33:55.229Z,2.20
2023-04-20T18:39:18.967Z,2.78
2023-04-20T18:44:44.083Z,2.67
2023-04-20T18:50:08.836Z,2.08
2023-04-20T18:55:32.623Z,2.70
2023-04-20T19:00:58.207Z,2.40
2023-04-20T19:06:21.983Z,2.75
2023-04-20T19:11:45.818Z,2.97
2023-04-20T19:17:10.919Z,2.75
2023-04-20T19:22:34.596Z,2.85
2023-04-20T19:27:58.757Z,2.95
2023-04-20T19:33:23.961Z,3.60
2023-04-20T19:38:47.776Z,3.13
2023-04-20T19:44:12.248Z,3.60
2023-04-20T19:49:37.348Z,3.03
2023-04-20T19:55:01.214Z,2.97
2023-04-20T20:00:25.072Z,4.03
2023-04-20T20:05:50.283Z,3.20
2023-04-20T20:11:14.050Z,5.22
2023-04-20T20:16:37.836Z,4.22
2023-04-20T20:22:03.081Z,3.42
2023-04-20T20:27:26.812Z,3.08
2023-04-20T20:32:51.214Z,3.60
2023-04-20T20:38:17.902Z,3.35
2023-04-20T20:43:42.701Z,3.00
2023-04-20T20:49:06.508Z,3.15
2023-04-20T20:54:32.488Z,3.30
2023-04-20T20:59:56.273Z,3.33
2023-04-20T21:05:22.821Z,3.35
2023-04-20T21:10:48.040Z,3.70
2023-04-20T21:16:11.811Z,3.92
2023-04-20T21:21:35.658Z,4.10
2023-04-20T21:27:00.986Z,3.67
2023-04-20T21:32:24.947Z,3.70
2023-04-20T21:37:48.664Z,3.40
2023-04-20T21:43:13.748Z,3.78
2023-04-20T21:48:37.467Z,3.67
2023-04-20T21:54:01.235Z,3.90
2023-04-20T21:59:26.390Z,3.90
2023-04-20T22:04:51.094Z,4.65
2023-04-20T22:10:15.122Z,4.20
2023-04-20T22:15:40.367Z,4.68
2023-04-20T22:21:04.313Z,3.83
2023-04-20T22:26:28.056Z,2.90
2023-04-20T22:31:53.167Z,3.00
2023-04-20T22:37:16.941Z,2.60
2023-04-20T22:42:40.891Z,2.95
2023-04-20T22:48:06.728Z,2.83
2023-04-20T22:53:30.440Z,3.10
2023-04-20T22:58:54.243Z,3.05
2023-04-20T23:11:13.110Z,3.60
2023-04-20T23:16:38.382Z,3.17
2023-04-20T23:22:02.829Z,3.75
2023-04-20T23:27:28.009Z,3.30
2023-04-20T23:32:51.758Z,3.72
2023-04-20T23:38:15.626Z,3.97
2023-04-20T23:43:41.191Z,3.92
2023-04-20T23:49:04.965Z,3.90
2023-04-20T23:54:29.233Z,3.45
2023-04-20T23:59:54.627Z,4.22
